Macatawa, MI (49434)

1:17 PM EST on January 28, 2015 (GMT -0500)
SpyglassCondos.com | Change Station
CLOSE
Current Station
Personal Weather Station
Location: Holland, MI
Elevation: 688 ft
Nearby Weather Stations
Active Advisory: Winter Weather Advisory

Elev 688 ft 42.78 °N, 86.21 °W | Updated 2 seconds ago

Partly Cloudy
Partly Cloudy
28.6 °F
Feels Like 23 °F
N
4.9
Wind Variable Wind from SSE
Gusts 11.0 mph

Today
High -- | Low -- °F
--% Chance of Precip.
Yesterday
High -- | Low -- °F
Precip. -- in
8:03 AM 5:52 PM
Waxing Gibbous, 66% visible
Pressure 30.30 in
Visibility 10.0 miles
Clouds Clear
Windchill 23 °F
Dew Point 14 °F
Humidity 51%
Rainfall 0.00 in
Snow Depth Not available.
UV 3 out of 12
Pollen .10 out of 12
Air Quality Not available.
Flu Activity Not available.
METAR KBIV 281753Z AUTO 19007KT 10SM CLR M01/M12 A3026 RMK AO2 SLP258 T10111122 11006 21106 58013

More Conditions Fewer Conditions

Pressure 30.30 in
Visibility 10.0 miles
Clouds Clear
Windchill 23 °F
Dew Point 14 °F
Humidity 51%
Rainfall 0.00 in
Snow Depth Not available.
UV 3 out of 12
Pollen .10 out of 12
Air Quality Not available.
Flu Activity Not available.
METAR KBIV 281753Z AUTO 19007KT 10SM CLR M01/M12 A3026 RMK AO2 SLP258 T10111122 11006 21106 58013

More Conditions Fewer Conditions

10-Day Weather Forecast

Almanac

Astronomy

Jan. 28, 2015 Rise Set
Actual Time
Civil Twilight
Nautical Twilight
Astronomical Twilight
Moon
Length of Visible Light
Length of Day
Tomorrow will be .
, % of the Moon is Illuminated

Today's Extremes

State Highs State Lows

Community

WunderPhotos

Upload Photos

1,791,237 photos uploaded!

WunderBlogs® & News

Nearby

Air Quality

  Air Quality AQ Index Pollutant
Not available.

Snow Depth

Station Depth Elevation

Earthquake Activity

City Distance Mag. Time & Date
Minimum magnitude displayed is 2.5.

Coastal Water Temperatures

Place Temperature

Nearby Weather Stations